• Join FlightAware (Why Join?)
  • Login
  • US Flag 
07:23AM EDT


 

Airport Tracker/Info


-or-


 

Live Flight TrackerFlight Track Log ✈ BHR29 ✈ 26-Nov-2013 ✈ KRIW - KSHR

Flight Track Log - Related Links

Times and Time Zones

All times are in EST time to prevent confusion due to time zone crossing. See the BHR29 flight status page for this flight to view local times or setup timezone preferences in your user account.

Time Position Orientation Groundspeed Altitude Reporting Facility
EST Latitude Longitude Course Direction KTS MPH feet Rate Location/Type
07:14PM 43.1011 -108.3900 32° Northeast 179 206 8,900  Level Salt Lake Center
07:15PM 43.1356 -108.3600 32° Northeast 152 175 10,600 1,740 Climbing Salt Lake Center
07:16PM 43.1717 -108.3339 28° Northeast 149 171 12,500 1,680 Climbing Salt Lake Center
07:17PM 43.2058 -108.3056 31° Northeast 145 167 14,100 1,680 Climbing Salt Lake Center
07:18PM 43.2489 -108.2706 31° Northeast 149 171 16,000 1,440 Climbing Salt Lake Center
07:19PM 43.2844 -108.2375 34° Northeast 152 175 17,100 480 Climbing Salt Lake Center
07:20PM 43.3331 -108.1994 30° Northeast 192 221 17,000 -60 Descending Salt Lake Center
07:22PM 43.3867 -108.1611 27° Northeast 213 245 17,000  Level Salt Lake Center
07:23PM 43.4369 -108.1175 32° Northeast 215 247 17,000  Level Salt Lake Center
07:24PM 43.4894 -108.0756 30° Northeast 217 250 17,000  Level Salt Lake Center
07:25PM 43.5525 -108.0272 29° Northeast 217 250 17,000  Level Salt Lake Center
07:26PM 43.6025 -107.9814 34° Northeast 216 249 17,000  Level Salt Lake Center
07:27PM 43.6550 -107.9411 29° Northeast 216 249 17,000  Level Salt Lake Center
07:28PM 43.7072 -107.9008 29° Northeast 216 249 17,000  Level Salt Lake Center
07:29PM 43.7578 -107.8556 33° Northeast 216 249 17,000  Level Salt Lake Center
07:30PM 43.8100 -107.8158 29° Northeast 216 249 17,000  Level Salt Lake Center
07:31PM 43.8611 -107.7742 30° Northeast 214 246 17,000  Level Salt Lake Center
07:32PM 43.9219 -107.7231 31° Northeast 214 246 17,000  Level Salt Lake Center
07:33PM 43.9736 -107.6800 31° Northeast 215 247 17,000  Level Salt Lake Center
07:34PM 44.0253 -107.6392 30° Northeast 215 247 17,000  Level Salt Lake Center
07:35PM 44.0753 -107.5939 33° Northeast 215 247 17,000  Level Salt Lake Center
07:36PM 44.1236 -107.5436 37° Northeast 215 247 17,000  Level Salt Lake Center
07:37PM 44.1731 -107.4981 33° Northeast 216 249 17,000  Level Salt Lake Center
07:38PM 44.2322 -107.4439 33° Northeast 215 247 17,000  Level Salt Lake Center
07:39PM 44.2817 -107.3989 33° Northeast 213 245 17,000  Level Salt Lake Center
07:40PM 44.3306 -107.3508 35° Northeast 214 246 17,000  Level Salt Lake Center
07:41PM 44.3789 -107.3006 37° Northeast 217 250 17,000  Level Salt Lake Center
07:42PM 44.4272 -107.2478 38° Northeast 220 253 17,000 -420 Level Salt Lake Center
07:43PM 44.4683 -107.1994 40° Northeast 207 238 16,200 -780 Descending Salt Lake Center
07:44PM 44.5144 -107.1444 40° Northeast 194 223 15,500 -900 Descending Salt Lake Center
07:45PM 44.5536 -107.1108 31° Northeast 181 208 14,400 -1,320 Descending Salt Lake Center
07:46PM 44.5883 -107.0786 33° Northeast 166 191 12,800 -1,620 Descending Salt Lake Center
07:47PM 44.6158 -107.0414 44° Northeast 154 177 11,200 -1,620 Descending Salt Lake Center
07:48PM 44.6447 -107.0111 37° Northeast 142 163 9,500 -1,020 Descending Salt Lake Center
07:49PM 44.6736 -106.9828 35° Northeast 140 161 9,100 -420 Descending Salt Lake Center
07:51PM 44.7400 -106.9810 35° Northeast  Level Estimated
07:58PM 44.7667 -106.9667 35° Northeast  Level FlightAware Approximate